Time;durP1;ratioP1;P1;durP2;ratioP2;P2;SDS_P1;SDS_P2;PMS_P1;PMS_P2;Temp;Humidity;BMP_temperature;BMP_pressure;BME280_temperature;BME280_humidity;BME280_pressure;Samples;Min_cycle;Max_cycle;Signal;HPM_P1;HPM_P2
2020/12/03 00:00:39;;;;;;;52.77;26.40;;;-2.50;1.00;;;;;;4892272;28;20609;-86
2020/12/03 00:03:08;;;;;;;43.53;20.70;;;-2.50;1.00;;;;;;4877104;28;20684;-84
2020/12/03 00:05:31;;;;;;;40.67;20.07;;;;;;;;;;4890470;28;20671;-86
2020/12/03 00:07:54;;;;;;;42.70;20.57;;;-2.50;1.00;;;;;;4860014;28;20726;-87
2020/12/03 00:10:17;;;;;;;38.23;19.70;;;;;;;;;;4876978;28;20622;-86
2020/12/03 00:12:39;;;;;;;38.17;20.73;;;;;;;;;;4876898;28;20610;-85
2020/12/03 00:15:01;;;;;;;35.70;19.73;;;;;;;;;;4860039;28;20681;-84
2020/12/03 00:17:24;;;;;;;36.83;20.00;;;-2.40;1.00;;;;;;4876767;28;21787;-83
2020/12/03 00:19:46;;;;;;;35.27;20.37;;;;;;;;;;4860940;28;20632;-86
2020/12/03 00:22:09;;;;;;;39.03;20.83;;;;;;;;;;4859945;28;20619;-86
2020/12/03 00:24:33;;;;;;;41.50;20.43;;;;;;;;;;4870831;28;21026;-85
2020/12/03 00:26:55;;;;;;;38.00;20.10;;;;;;;;;;4895614;28;20634;-87
2020/12/03 00:29:18;;;;;;;38.13;20.33;;;;;;;;;;4895175;28;20610;-86
2020/12/03 00:31:42;;;;;;;41.70;21.03;;;-2.50;99.90;;;;;;4897539;28;21238;-87
2020/12/03 00:34:14;;;;;;;40.57;20.60;;;-2.50;99.90;;;;;;4864696;28;20603;-86
2020/12/03 00:36:37;;;;;;;45.17;22.60;;;;;;;;;;4871946;28;21235;-83
2020/12/03 00:38:59;;;;;;;41.17;20.27;;;;;;;;;;4877643;28;20656;-85
2020/12/03 00:41:22;;;;;;;41.70;21.67;;;;;;;;;;4880511;28;20654;-84
2020/12/03 00:43:44;;;;;;;38.77;21.43;;;;;;;;;;4864046;28;20619;-85
2020/12/03 00:46:07;;;;;;;41.17;21.03;;;;;;;;;;4863795;28;20631;-86
2020/12/03 00:48:31;;;;;;;40.83;21.23;;;;;;;;;;4847982;28;20621;-86
2020/12/03 00:50:55;;;;;;;40.50;21.23;;;-2.40;1.00;;;;;;4863738;28;20619;-86
2020/12/03 00:53:18;;;;;;;39.63;20.90;;;;;;;;;;4880017;28;20630;-86
2020/12/03 00:55:42;;;;;;;42.70;22.00;;;;;;;;;;4863419;28;20628;-87
2020/12/03 00:58:07;;;;;;;36.40;19.53;;;;;;;;;;4898189;28;21124;-85
2020/12/03 01:00:29;;;;;;;47.97;24.07;;;;;;;;;;4871092;28;20594;-85
2020/12/03 01:02:51;;;;;;;40.63;20.60;;;;;;;;;;4879205;28;20626;-87
2020/12/03 01:05:15;;;;;;;39.80;20.80;;;-2.50;1.00;;;;;;4897842;28;20601;-86
2020/12/03 01:07:41;;;;;;;43.87;21.10;;;-2.50;1.00;;;;;;4879281;28;20666;-86
2020/12/03 01:10:05;;;;;;;36.73;20.90;;;-2.50;1.00;;;;;;4879535;28;20684;-84
2020/12/03 01:12:27;;;;;;;41.20;19.57;;;;;;;;;;4890553;28;20625;-85
2020/12/03 01:14:50;;;;;;;36.93;19.50;;;;;;;;;;4898065;28;20613;-85
2020/12/03 01:17:16;;;;;;;43.37;22.07;;;-2.60;1.00;;;;;;4879618;28;21245;-88
2020/12/03 01:19:39;;;;;;;40.00;20.57;;;-2.60;1.00;;;;;;4879504;28;20627;-87
2020/12/03 01:22:02;;;;;;;46.70;21.83;;;;;;;;;;4863217;28;20626;-84
2020/12/03 01:24:25;;;;;;;40.13;20.67;;;-2.60;1.00;;;;;;4897973;28;20679;-85
2020/12/03 01:26:48;;;;;;;39.87;20.87;;;-2.70;1.00;;;;;;4896499;28;20661;-84
2020/12/03 01:29:10;;;;;;;43.60;22.63;;;;;;;;;;4879747;28;21178;-87
2020/12/03 01:31:32;;;;;;;44.93;22.33;;;;;;;;;;4897557;28;20614;-87
2020/12/03 01:33:55;;;;;;;42.87;21.10;;;;;;;;;;4862526;28;20681;-86
2020/12/03 01:36:17;;;;;;;43.80;22.90;;;;;;;;;;4897676;28;20617;-85
2020/12/03 01:38:39;;;;;;;45.47;22.10;;;;;;;;;;4897601;28;20605;-85
2020/12/03 01:41:03;;;;;;;42.73;21.50;;;-2.70;1.00;;;;;;4879003;28;20656;-86
2020/12/03 01:43:25;;;;;;;41.87;21.90;;;;;;;;;;4878421;28;20688;-86
2020/12/03 01:45:51;;;;;;;46.23;22.63;;;-2.60;99.90;;;;;;4878762;28;20627;-85
2020/12/03 01:48:24;;;;;;;45.07;22.77;;;-2.60;99.90;;;;;;4895971;28;20645;-85
2020/12/03 01:50:46;;;;;;;44.23;21.53;;;;;;;;;;4862719;28;20658;-86
2020/12/03 01:53:09;;;;;;;43.13;22.03;;;;;;;;;;4895366;28;20625;-85
2020/12/03 01:55:31;;;;;;;46.93;22.77;;;;;;;;;;4878340;28;21257;-84
2020/12/03 01:57:56;;;;;;;44.03;22.83;;;-2.80;99.90;;;;;;4877323;28;20647;-87
2020/12/03 02:00:20;;;;;;;44.23;23.03;;;-2.80;1.00;;;;;;4861272;28;20681;-87
2020/12/03 02:02:46;;;;;;;40.43;21.37;;;-2.80;1.00;;;;;;4860865;28;20623;-87
2020/12/03 02:05:13;;;;;;;44.83;22.23;;;-2.90;1.00;;;;;;4878310;28;20614;-85
2020/12/03 02:07:35;;;;;;;48.47;23.23;;;;;;;;;;4878749;28;20709;-87
2020/12/03 02:09:58;;;;;;;42.70;21.60;;;;;;;;;;4861974;28;20631;-87
2020/12/03 02:12:20;;;;;;;43.27;21.67;;;;;;;;;;4879172;28;20649;-86
2020/12/03 02:14:43;;;;;;;48.03;22.97;;;-2.90;1.00;;;;;;4862566;28;20656;-88
2020/12/03 02:17:05;;;;;;;46.50;22.17;;;;;;;;;;4879486;28;20626;-83
2020/12/03 02:19:31;;;;;;;45.67;22.00;;;-2.90;1.00;;;;;;4878658;28;20684;-86
2020/12/03 02:21:59;;;;;;;49.33;22.93;;;-2.90;1.00;;;;;;4878675;28;20622;-85
2020/12/03 02:24:21;;;;;;;41.40;20.93;;;;;;;;;;4862306;28;20693;-84
2020/12/03 02:26:49;;;;;;;43.27;22.30;;;-2.90;1.00;;;;;;4896890;28;20602;-83
2020/12/03 02:29:12;;;;;;;46.73;23.30;;;;;;;;;;4878661;28;20626;-85
2020/12/03 02:31:34;;;;;;;44.57;22.67;;;;;;;;;;4896798;28;20722;-85
2020/12/03 02:33:56;;;;;;;47.17;22.37;;;;;;;;;;4896996;28;20679;-85
2020/12/03 02:36:19;;;;;;;46.57;21.80;;;;;;;;;;4878450;28;20721;-85
2020/12/03 02:38:45;;;;;;;45.40;22.63;;;-3.00;99.90;;;;;;4878476;28;20610;-86
2020/12/03 02:41:09;;;;;;;45.13;23.03;;;-3.00;99.90;;;;;;4861367;28;20651;-86
2020/12/03 02:43:35;;;;;;;47.57;22.07;;;;;;;;;;4862322;28;20641;-86
2020/12/03 02:45:57;;;;;;;44.03;21.57;;;;;;;;;;4861723;28;20616;-86
2020/12/03 02:48:20;;;;;;;46.70;23.50;;;;;;;;;;4877935;28;21190;-84
2020/12/03 02:50:42;;;;;;;44.57;22.73;;;;;;;;;;4878312;28;21191;-86
2020/12/03 02:53:05;;;;;;;47.70;22.67;;;;;;;;;;4878279;28;20607;-85
2020/12/03 02:55:28;;;;;;;50.40;22.17;;;-3.20;99.90;;;;;;4878181;28;21025;-84
2020/12/03 02:57:51;;;;;;;46.10;22.70;;;;;;;;;;4877744;28;21039;-86
2020/12/03 03:00:13;;;;;;;49.67;22.30;;;;;;;;;;4895788;28;20649;-87
2020/12/03 03:02:36;;;;;;;45.10;22.73;;;;;;;;;;4875439;28;20623;-85
2020/12/03 03:04:58;;;;;;;46.50;23.37;;;;;;;;;;4877522;28;20665;-87
2020/12/03 03:07:20;;;;;;;46.90;22.80;;;;;;;;;;4877455;28;20650;-88
2020/12/03 03:09:43;;;;;;;55.33;24.67;;;;;;;;;;4877740;28;20615;-85
2020/12/03 03:12:06;;;;;;;49.97;24.40;;;-3.10;1.00;;;;;;4895736;28;20622;-86
2020/12/03 03:14:28;;;;;;;44.50;21.47;;;-3.00;72.20;;;;;;4888636;28;20621;-85
2020/12/03 03:16:51;;;;;;;46.60;22.40;;;-3.10;1.00;;;;;;4895761;28;20635;-86
2020/12/03 03:19:14;;;;;;;48.97;23.17;;;;;;;;;;4875814;28;20690;-87
2020/12/03 03:21:37;;;;;;;45.03;22.30;;;;;;;;;;4878052;28;20630;-87
2020/12/03 03:23:59;;;;;;;46.30;22.13;;;;;;;;;;4877487;28;20625;-86
2020/12/03 03:26:21;;;;;;;44.87;22.33;;;;;;;;;;4878025;28;20627;-86
2020/12/03 03:28:44;;;;;;;47.03;22.40;;;-3.00;1.00;;;;;;4877923;28;21285;-86
2020/12/03 03:31:07;;;;;;;46.17;22.77;;;;;;;;;;4894017;28;20610;-82
2020/12/03 03:33:29;;;;;;;49.57;23.60;;;;;;;;;;4877603;28;21053;-84
2020/12/03 03:35:51;;;;;;;47.80;22.17;;;;;;;;;;4878074;28;20622;-85
2020/12/03 03:38:14;;;;;;;46.67;23.57;;;;;;;;;;4895532;28;20602;-85
2020/12/03 03:40:36;;;;;;;49.37;24.67;;;;;;;;;;4894536;28;20679;-87
2020/12/03 03:42:58;;;;;;;45.93;23.97;;;;;;;;;;4895633;28;20649;-85
2020/12/03 03:45:21;;;;;;;46.37;21.80;;;-2.90;99.90;;;;;;4860662;28;20611;-85
2020/12/03 03:47:44;;;;;;;43.20;23.00;;;;;;;;;;4895438;28;20629;-86
2020/12/03 03:50:08;;;;;;;48.73;24.93;;;-2.80;99.90;;;;;;4877636;28;20623;-85
2020/12/03 03:52:30;;;;;;;54.27;26.13;;;;;;;;;;4891710;28;21240;-85
2020/12/03 03:54:53;;;;;;;50.27;25.50;;;;;;;;;;4876674;28;20641;-86
2020/12/03 03:57:15;;;;;;;47.30;23.07;;;;;;;;;;4876401;28;20614;-87
2020/12/03 03:59:38;;;;;;;52.53;25.00;;;;;;;;;;4894667;28;20641;-85
2020/12/03 04:02:00;;;;;;;47.60;24.37;;;-2.80;1.00;;;;;;4888261;28;20663;-86
2020/12/03 04:04:23;;;;;;;48.53;24.03;;;;;;;;;;4893584;28;21239;-85
2020/12/03 04:06:45;;;;;;;52.70;26.00;;;;;;;;;;4876185;28;21056;-85
2020/12/03 04:09:08;;;;;;;58.43;27.30;;;;;;;;;;4894927;28;20645;-86
2020/12/03 04:11:30;;;;;;;50.50;23.53;;;;;;;;;;4895230;28;21225;-86
2020/12/03 04:13:52;;;;;;;51.30;23.20;;;;;;;;;;4843622;28;20683;-87
2020/12/03 04:16:15;;;;;;;47.17;22.80;;;;;;;;;;4894877;28;20614;-87
2020/12/03 04:18:38;;;;;;;53.70;24.90;;;-3.30;1.00;;;;;;4876793;28;21051;-85
2020/12/03 04:21:06;;;;;;;52.00;25.73;;;-3.40;1.00;;;;;;4859157;28;20631;-85
2020/12/03 04:23:28;;;;;;;52.67;24.80;;;-3.50;1.00;;;;;;4860023;28;21058;-84
2020/12/03 04:25:51;;;;;;;54.33;26.90;;;;;;;;;;4876840;28;20997;-86
2020/12/03 04:28:14;;;;;;;56.43;27.83;;;;;;;;;;4859660;28;20663;-86
2020/12/03 04:30:36;;;;;;;55.80;28.17;;;;;;;;;;4877185;28;20669;-86
2020/12/03 04:32:58;;;;;;;45.53;23.03;;;;;;;;;;4877285;28;20986;-85
2020/12/03 04:35:23;;;;;;;51.80;24.40;;;-3.60;1.00;;;;;;4877931;28;20622;-84
2020/12/03 04:37:47;;;;;;;52.77;25.97;;;-3.60;99.90;;;;;;4877660;28;20611;-86
2020/12/03 04:40:09;;;;;;;48.17;24.87;;;;;;;;;;4895131;28;20614;-85
2020/12/03 04:42:35;;;;;;;55.70;29.40;;;-3.50;1.00;;;;;;4876775;28;20638;-86
2020/12/03 04:45:07;;;;;;;59.43;29.43;;;-3.40;1.00;;;;;;4877274;28;20630;-86
2020/12/03 04:47:49;;;;;;;56.23;26.57;;;-3.40;99.90;;;;;;4876645;28;20639;-86
2020/12/03 04:50:20;;;;;;;49.37;24.03;;;-3.40;99.90;;;;;;4860381;28;20737;-86
2020/12/03 04:53:08;;;;;;;54.77;27.10;;;-3.40;1.00;;;;;;4842645;28;20690;-87
2020/12/03 04:55:39;;;;;;;52.77;25.03;;;-3.40;82.50;;;;;;4892240;28;20651;-86
2020/12/03 04:58:07;;;;;;;52.10;24.43;;;-3.40;99.90;;;;;;4875312;28;20665;-87
2020/12/03 05:00:40;;;;;;;54.57;27.53;;;-3.40;99.90;;;;;;4871263;28;20634;-86
2020/12/03 05:03:42;;;;;;;50.27;25.53;;;-3.40;99.90;;;;;;4892881;28;21020;-86
2020/12/03 05:06:20;;;;;;;54.47;27.00;;;-3.40;99.90;;;;;;4890124;28;20632;-85
2020/12/03 05:08:51;;;;;;;65.63;31.43;;;-3.40;99.90;;;;;;4891814;28;20683;-86
2020/12/03 05:11:21;;;;;;;75.63;34.57;;;-3.30;99.90;;;;;;4891699;28;20629;-86
2020/12/03 05:13:51;;;;;;;86.70;38.17;;;-3.20;1.00;;;;;;4859504;28;20623;-85
2020/12/03 05:16:17;;;;;;;80.53;35.87;;;-3.20;99.90;;;;;;4876174;28;21038;-85
2020/12/03 05:18:53;;;;;;;120.33;51.30;;;-3.00;99.90;;;;;;4879553;28;21321;-87
2020/12/03 05:21:19;;;;;;;61.43;29.57;;;-3.00;99.90;;;;;;4880047;28;20598;-86
2020/12/03 05:23:41;;;;;;;60.03;29.13;;;;;;;;;;4897472;28;21166;-85
2020/12/03 05:26:14;;;;;;;65.53;30.00;;;-2.90;1.00;;;;;;4879699;28;20626;-85
2020/12/03 05:28:43;;;;;;;63.13;29.27;;;-2.90;1.00;;;;;;4880230;28;20591;-86
2020/12/03 05:31:13;;;;;;;57.87;27.17;;;-2.80;1.00;;;;;;4848466;28;20623;-86
2020/12/03 05:33:36;;;;;;;53.00;25.67;;;;;;;;;;4889237;28;20638;-86
2020/12/03 05:35:58;;;;;;;56.93;27.03;;;;;;;;;;4879372;28;20676;-85
2020/12/03 05:38:24;;;;;;;57.73;27.80;;;-2.70;1.00;;;;;;4879084;28;20657;-85
2020/12/03 05:40:55;;;;;;;60.17;27.83;;;-2.70;1.00;;;;;;4897344;28;21052;-86
2020/12/03 05:43:18;;;;;;;60.70;27.03;;;-2.60;1.00;;;;;;4878881;28;20614;-84
2020/12/03 05:45:40;;;;;;;57.67;27.57;;;;;;;;;;4897270;28;20601;-86
2020/12/03 05:48:05;;;;;;;56.77;28.10;;;-2.60;1.00;;;;;;4897493;28;20605;-86
2020/12/03 05:50:35;;;;;;;59.97;28.80;;;-2.60;99.90;;;;;;4892676;28;20633;-86
2020/12/03 05:53:00;;;;;;;57.70;28.60;;;-2.60;48.40;;;;;;4897067;28;21077;-84
2020/12/03 05:55:27;;;;;;;62.83;29.13;;;-2.60;99.90;;;;;;4863081;28;20626;-85
2020/12/03 05:57:49;;;;;;;53.40;27.13;;;;;;;;;;4878996;28;20654;-85
2020/12/03 06:00:30;;;;;;;58.67;27.30;;;-1.60;99.90;;;;;;4896998;28;20647;-84
2020/12/03 06:03:20;;;;;;;78.13;35.93;;;-2.50;1.00;;;;;;4897168;28;20605;-85
2020/12/03 06:05:52;;;;;;;79.80;39.97;;;-2.40;1.00;;;;;;4892822;28;20634;-84
2020/12/03 06:08:27;;;;;;;161.53;74.00;;;-2.40;1.00;;;;;;4877469;28;21019;-86
2020/12/03 06:11:05;;;;;;;90.10;42.20;;;-2.40;1.00;;;;;;4829404;28;21219;-86
2020/12/03 06:13:47;;;;;;;104.10;48.97;;;-2.40;99.90;;;;;;4894251;28;20633;-85
2020/12/03 06:16:24;;;;;;;65.73;32.30;;;-2.40;99.90;;;;;;4890690;28;20672;-85
2020/12/03 06:19:10;;;;;;;67.07;32.63;;;-2.50;99.90;;;;;;4896570;28;20625;-85
2020/12/03 06:22:13;;;;;;;84.87;40.83;;;-2.50;99.90;;;;;;4872239;28;21281;-85
2020/12/03 06:25:14;;;;;;;66.33;32.33;;;-2.00;1.00;;;;;;4835959;28;20615;-86
2020/12/03 06:28:07;;;;;;;63.93;30.57;;;-2.70;1.00;;;;;;4890520;28;20598;-84
2020/12/03 06:30:32;;;;;;;59.80;28.20;;;-2.60;99.90;;;;;;4868619;28;20643;-85
2020/12/03 06:33:37;;;;;;;145.13;61.80;;;-2.50;1.00;;;;;;4896866;28;20636;-86
2020/12/03 06:36:07;;;;;;;85.80;39.50;;;-2.60;99.90;;;;;;4896573;28;20652;-86
2020/12/03 06:38:37;;;;;;;58.00;30.47;;;-2.50;99.90;;;;;;4879438;28;21206;-87
2020/12/03 06:41:14;;;;;;;57.30;29.30;;;-2.50;99.90;;;;;;4879039;28;21285;-85
2020/12/03 06:43:45;;;;;;;65.50;30.63;;;-2.40;99.90;;;;;;4878890;28;20626;-85
2020/12/03 06:46:49;;;;;;;61.43;29.73;;;-2.40;21.00;;;;;;4862436;28;20822;-86
2020/12/03 06:50:00;;;;;;;63.10;30.10;;;-2.40;1.00;;;;;;4888794;28;20659;-85
2020/12/03 06:52:53;;;;;;;56.13;28.73;;;-2.10;1.00;;;;;;4826217;28;20622;-86
2020/12/03 06:55:46;;;;;;;81.90;37.57;;;-2.20;40.70;;;;;;4895100;28;20675;-86
2020/12/03 06:58:52;;;;;;;73.13;34.57;;;-2.40;99.90;;;;;;4878483;28;20658;-86
2020/12/03 07:01:53;;;;;;;93.07;43.10;;;-2.50;1.00;;;;;;4814472;28;20680;-86
2020/12/03 07:04:56;;;;;;;75.43;35.77;;;-2.40;1.00;;;;;;4893389;28;21186;-85
2020/12/03 07:08:00;;;;;;;104.50;41.53;;;-2.30;1.00;;;;;;4895214;28;20586;-84
2020/12/03 07:10:59;;;;;;;61.40;31.70;;;-2.00;99.90;;;;;;4877449;28;20638;-85
2020/12/03 07:13:59;;;;;;;77.90;35.10;;;-2.00;1.00;;;;;;4851817;28;20652;-83
2020/12/03 07:17:15;;;;;;;79.67;36.03;;;-1.90;1.00;;;;;;4877036;28;20675;-85
2020/12/03 07:20:07;;;;;;;54.33;28.03;;;-1.70;1.00;;;;;;4875518;28;21005;-85
2020/12/03 07:22:35;;;;;;;57.60;29.20;;;-1.60;99.90;;;;;;4877458;28;21075;-85
2020/12/03 07:24:58;;;;;;;71.53;33.37;;;-1.50;92.70;;;;;;4877006;28;20675;-86
2020/12/03 07:27:53;;;;;;;100.80;46.50;;;-1.10;99.90;;;;;;4876472;28;21175;-85
2020/12/03 07:30:40;;;;;;;54.93;26.00;;;-1.10;1.00;;;;;;4869465;28;21038;-86
2020/12/03 07:33:07;;;;;;;49.30;25.27;;;-0.90;1.00;;;;;;4847082;28;20666;-83
2020/12/03 07:35:36;;;;;;;45.07;23.87;;;-0.80;99.90;;;;;;4877279;28;20622;-85
2020/12/03 07:38:08;;;;;;;52.93;27.57;;;-0.70;99.90;;;;;;4877298;28;20622;-85
2020/12/03 07:40:32;;;;;;;65.50;32.13;;;-0.60;1.00;;;;;;4875409;28;20638;-85
2020/12/03 07:43:01;;;;;;;57.00;30.90;;;-0.60;1.00;;;;;;4877175;28;20645;-84
2020/12/03 07:45:32;;;;;;;49.00;27.37;;;-0.60;1.00;;;;;;4876224;28;20687;-85
2020/12/03 07:48:13;;;;;;;44.90;25.40;;;-0.70;66.30;;;;;;4895604;28;20617;-85
2020/12/03 07:50:48;;;;;;;46.87;24.43;;;-0.60;1.00;;;;;;4891065;28;20667;-85
2020/12/03 07:53:20;;;;;;;47.97;23.93;;;-0.60;99.90;;;;;;4895051;28;20602;-83
2020/12/03 07:55:45;;;;;;;63.47;32.60;;;-0.50;99.90;;;;;;4873514;28;20731;-85
2020/12/03 07:58:33;;;;;;;64.63;33.30;;;-0.50;99.90;;;;;;4883439;28;20766;-83
2020/12/03 08:00:56;;;;;;;71.43;32.17;;;;;;;;;;4878857;28;20656;-83
2020/12/03 08:03:42;;;;;;;71.43;34.00;;;-0.40;99.90;;;;;;4883855;28;20655;-85
2020/12/03 08:06:29;;;;;;;59.40;31.43;;;-0.30;99.90;;;;;;4869814;28;21130;-84
2020/12/03 08:08:54;;;;;;;51.03;26.43;;;-0.10;99.90;;;;;;4887983;28;20631;-82
2020/12/03 08:11:45;;;;;;;48.13;25.10;;;0.00;99.90;;;;;;4876064;28;20618;-85
2020/12/03 08:14:42;;;;;;;46.43;24.43;;;0.20;87.60;;;;;;4836673;28;20639;-84
2020/12/03 08:17:23;;;;;;;52.00;26.30;;;0.40;14.80;;;;;;4813736;28;20590;-83
2020/12/03 08:20:07;;;;;;;50.37;29.00;;;0.40;1.00;;;;;;4798740;28;20662;-83
2020/12/03 08:22:32;;;;;;;56.63;29.13;;;0.70;1.00;;;;;;4849809;28;20625;-83
2020/12/03 08:25:02;;;;;;;52.57;28.03;;;0.80;1.00;;;;;;4886047;28;20625;-83
2020/12/03 08:27:26;;;;;;;54.57;31.33;;;0.80;1.00;;;;;;4874453;28;20644;-83
2020/12/03 08:29:48;;;;;;;54.80;30.70;;;;;;;;;;4892375;28;20671;-84
2020/12/03 08:32:10;;;;;;;48.37;26.20;;;;;;;;;;4884825;28;20206;-83
2020/12/03 08:34:34;;;;;;;66.43;33.30;;;1.10;1.00;;;;;;4865338;28;20869;-83
2020/12/03 08:36:57;;;;;;;57.77;31.43;;;1.20;1.00;;;;;;4894216;28;20189;-83
2020/12/03 08:39:19;;;;;;;58.80;31.30;;;1.20;1.00;;;;;;4858742;28;20703;-83
2020/12/03 08:41:42;;;;;;;51.60;29.20;;;;;;;;;;4875834;28;20646;-84
2020/12/03 08:44:10;;;;;;;64.73;32.10;;;1.10;1.00;;;;;;4859255;28;20281;-82
2020/12/03 08:46:33;;;;;;;61.07;29.57;;;1.20;1.00;;;;;;4874226;28;20639;-83
2020/12/03 08:48:59;;;;;;;58.27;29.63;;;;;;;;;;4858258;28;20236;-84
2020/12/03 08:51:22;;;;;;;57.67;29.93;;;1.30;1.00;;;;;;4875520;28;20189;-84
2020/12/03 08:53:46;;;;;;;50.50;27.40;;;1.30;1.00;;;;;;4897463;28;20609;-83
2020/12/03 08:56:24;;;;;;;46.03;25.47;;;1.40;1.00;;;;;;4877731;28;21042;-83
2020/12/03 08:59:01;;;;;;;43.63;24.50;;;1.40;1.00;;;;;;4878133;28;20225;-83
2020/12/03 09:01:41;;;;;;;50.73;26.97;;;1.40;1.00;;;;;;4872490;28;20201;-84
2020/12/03 09:04:22;;;;;;;69.13;29.70;;;1.50;1.00;;;;;;4877176;28;20279;-84
2020/12/03 09:07:00;;;;;;;46.37;23.77;;;1.50;1.00;;;;;;4881692;28;20586;-85
2020/12/03 09:09:28;;;;;;;42.20;23.40;;;1.50;1.00;;;;;;4878559;28;20629;-83
2020/12/03 09:11:57;;;;;;;53.23;29.33;;;1.50;99.90;;;;;;4896475;28;20187;-84
2020/12/03 09:14:27;;;;;;;45.20;26.47;;;1.40;1.00;;;;;;4861516;28;20264;-83
2020/12/03 09:17:09;;;;;;;47.93;25.57;;;1.20;1.00;;;;;;4864281;28;20188;-85
2020/12/03 09:19:46;;;;;;;54.47;26.87;;;1.30;99.90;;;;;;4893814;28;20208;-82
2020/12/03 09:22:24;;;;;;;42.70;22.90;;;1.20;1.00;;;;;;4877885;28;20180;-82
2020/12/03 09:24:56;;;;;;;56.73;29.10;;;1.30;99.90;;;;;;4895986;28;20189;-81
2020/12/03 09:27:44;;;;;;;45.87;25.30;;;1.30;1.00;;;;;;4897948;28;20173;-83
2020/12/03 09:30:17;;;;;;;43.67;24.17;;;1.00;1.00;;;;;;4879662;28;20223;-82
2020/12/03 09:32:41;;;;;;;49.73;25.90;;;1.00;1.00;;;;;;4894699;28;20189;-82
2020/12/03 09:35:06;;;;;;;45.53;24.87;;;;;;;;;;4861027;28;20672;-83
2020/12/03 09:37:30;;;;;;;48.80;25.03;;;1.00;1.00;;;;;;4878331;28;20631;-83
2020/12/03 09:39:54;;;;;;;51.73;26.93;;;;;;;;;;4879174;28;20255;-83
2020/12/03 09:42:20;;;;;;;54.00;28.07;;;1.10;1.00;;;;;;4878514;28;21198;-83
2020/12/03 09:44:47;;;;;;;48.83;25.70;;;1.20;1.00;;;;;;4861991;28;20202;-83
2020/12/03 09:47:13;;;;;;;47.07;24.90;;;1.20;1.00;;;;;;4878970;28;20630;-83
2020/12/03 09:49:37;;;;;;;48.40;25.63;;;1.30;1.00;;;;;;4878353;28;20740;-83
2020/12/03 09:52:03;;;;;;;45.20;24.50;;;1.30;1.00;;;;;;4879569;28;20189;-83
2020/12/03 09:54:35;;;;;;;47.73;26.37;;;1.10;99.90;;;;;;4876935;28;20741;-82
2020/12/03 09:56:59;;;;;;;45.93;24.13;;;1.60;99.90;;;;;;4878641;28;20250;-83
2020/12/03 09:59:23;;;;;;;50.00;25.70;;;1.50;1.00;;;;;;4862221;28;20683;-81
2020/12/03 10:02:19;;;;;;;48.07;24.63;;;1.50;1.00;;;;;;4891096;28;20269;-81
2020/12/03 10:05:12;;;;;;;50.93;26.60;;;1.30;1.00;;;;;;4892693;28;20551;-82
2020/12/03 10:07:56;;;;;;;48.13;26.67;;;1.60;1.00;;;;;;4874971;28;20651;-83
2020/12/03 10:10:30;;;;;;;61.33;30.87;;;1.60;1.00;;;;;;4876562;28;20201;-82
2020/12/03 10:13:11;;;;;;;46.57;26.10;;;1.70;1.00;;;;;;4863050;28;20276;-82
2020/12/03 10:15:59;;;;;;;47.57;26.37;;;2.00;99.90;;;;;;4871271;28;20246;-82
2020/12/03 10:18:24;;;;;;;42.27;23.93;;;2.60;19.10;;;;;;4889202;28;21044;-82
2020/12/03 10:20:50;;;;;;;49.30;26.93;;;1.90;1.00;;;;;;4877818;28;20213;-82
2020/12/03 10:23:26;;;;;;;67.93;36.23;;;2.30;99.90;;;;;;4860914;28;20197;-82
2020/12/03 10:26:00;;;;;;;66.67;36.20;;;2.20;18.70;;;;;;4860360;28;20193;-82
2020/12/03 10:28:25;;;;;;;50.13;26.17;;;2.20;1.00;;;;;;4867074;28;20232;-82
2020/12/03 10:30:48;;;;;;;48.67;25.17;;;2.10;99.90;;;;;;4859995;28;20185;-82
2020/12/03 10:33:14;;;;;;;50.97;28.30;;;2.50;99.90;;;;;;4870540;28;20185;-81
2020/12/03 10:35:42;;;;;;;50.47;28.63;;;2.50;99.90;;;;;;4895956;28;20230;-81
2020/12/03 10:38:06;;;;;;;76.77;42.53;;;2.30;1.00;;;;;;4895215;28;20230;-83
2020/12/03 10:40:29;;;;;;;50.30;31.20;;;2.20;1.00;;;;;;4895284;28;20215;-83
2020/12/03 10:42:59;;;;;;;52.03;28.47;;;2.10;1.00;;;;;;4875378;28;20693;-82
2020/12/03 10:45:29;;;;;;;46.00;25.10;;;2.30;1.00;;;;;;4895214;28;20184;-81
2020/12/03 10:47:57;;;;;;;56.80;31.13;;;2.10;1.00;;;;;;4876796;28;20189;-83
2020/12/03 10:50:21;;;;;;;42.93;26.13;;;2.10;1.00;;;;;;4877013;28;20197;-82
2020/12/03 10:52:45;;;;;;;50.57;28.40;;;2.20;99.90;;;;;;4893211;28;20270;-82
2020/12/03 10:55:08;;;;;;;54.27;29.33;;;2.00;1.00;;;;;;4876303;28;20193;-84
2020/12/03 10:57:34;;;;;;;41.23;24.70;;;2.20;1.00;;;;;;4894611;28;20677;-81
2020/12/03 11:00:00;;;;;;;45.47;26.77;;;2.20;1.00;;;;;;4883793;28;20217;-82
2020/12/03 11:02:27;;;;;;;38.93;24.07;;;2.10;1.00;;;;;;4889754;28;20193;-85
2020/12/03 11:04:51;;;;;;;46.77;26.57;;;1.90;99.90;;;;;;4892742;28;20231;-83
2020/12/03 11:07:14;;;;;;;46.03;24.47;;;;;;;;;;4862022;28;20264;-83
2020/12/03 11:09:36;;;;;;;50.60;29.87;;;;;;;;;;4894384;28;20254;-82
2020/12/03 11:11:59;;;;;;;122.20;56.77;;;;;;;;;;4895690;28;20235;-84
2020/12/03 11:14:21;;;;;;;163.33;76.07;;;;;;;;;;4876053;28;20189;-85
2020/12/03 11:16:47;;;;;;;43.93;25.63;;;1.90;1.00;;;;;;4877222;28;20613;-86
2020/12/03 11:19:15;;;;;;;54.57;30.30;;;1.90;1.00;;;;;;4894369;28;20550;-85
2020/12/03 11:21:43;;;;;;;48.23;27.93;;;1.80;1.00;;;;;;4860101;28;20301;-84
2020/12/03 11:24:16;;;;;;;49.47;27.03;;;1.80;1.00;;;;;;4877514;28;20398;-83
2020/12/03 11:26:45;;;;;;;41.13;25.07;;;1.60;99.90;;;;;;4875473;28;20197;-83
2020/12/03 11:29:11;;;;;;;43.03;24.20;;;1.70;1.00;;;;;;4891111;28;20212;-83
2020/12/03 11:31:34;;;;;;;46.17;26.87;;;;;;;;;;4842843;28;20198;-84
2020/12/03 11:33:57;;;;;;;43.53;25.53;;;1.90;37.30;;;;;;4877479;28;20193;-81
2020/12/03 11:36:19;;;;;;;54.77;29.33;;;;;;;;;;4894273;28;20644;-82
2020/12/03 11:38:50;;;;;;;56.00;31.83;;;1.60;1.00;;;;;;4895124;28;20712;-83
2020/12/03 11:41:23;;;;;;;70.10;36.00;;;1.60;1.00;;;;;;4894168;28;20262;-82
2020/12/03 11:44:19;;;;;;;68.90;37.57;;;1.30;99.90;;;;;;4857634;28;20624;-82
2020/12/03 11:49:31;;;;;;;51.07;28.43;;;1.50;1.00;;;;;;4852370;28;20201;-87
2020/12/03 11:51:54;;;;;;;52.30;27.83;;;1.80;99.90;;;;;;4859124;28;20566;-83
2020/12/03 11:54:17;;;;;;;79.60;41.07;;;;;;;;;;4892256;28;20193;-83
2020/12/03 11:56:39;;;;;;;75.63;39.60;;;;;;;;;;4868550;28;20185;-83
2020/12/03 11:59:12;;;;;;;61.73;33.70;;;1.10;1.00;;;;;;4874869;28;20222;-80
2020/12/03 12:01:35;;;;;;;99.90;49.33;;;;;;;;;;4857037;28;20625;-83
2020/12/03 12:03:57;;;;;;;76.67;40.60;;;1.40;99.90;;;;;;4887374;28;20184;-82
2020/12/03 12:06:27;;;;;;;79.37;42.43;;;1.30;99.90;;;;;;4874924;28;20612;-82
2020/12/03 12:08:56;;;;;;;84.47;43.03;;;;;;;;;;4895178;28;20180;-81
2020/12/03 12:11:23;;;;;;;63.93;35.20;;;1.10;99.90;;;;;;4875310;28;20622;-82
2020/12/03 12:13:46;;;;;;;71.43;36.40;;;1.40;1.00;;;;;;4853229;28;20201;-82
2020/12/03 12:16:12;;;;;;;51.40;27.90;;;1.20;1.00;;;;;;4857494;28;20628;-82
2020/12/03 12:18:34;;;;;;;41.73;24.00;;;;;;;;;;4891627;28;20209;-83
2020/12/03 12:20:57;;;;;;;75.70;35.83;;;;;;;;;;4874174;28;20734;-82
2020/12/03 12:23:21;;;;;;;131.37;55.30;;;1.20;1.00;;;;;;4890536;28;20636;-82
2020/12/03 12:25:44;;;;;;;134.47;59.17;;;;;;;;;;4873822;28;20205;-82
2020/12/03 12:28:06;;;;;;;48.47;27.57;;;;;;;;;;4879127;28;20192;-83
2020/12/03 12:30:29;;;;;;;231.40;99.20;;;;;;;;;;4881177;28;20606;-84
2020/12/03 12:32:52;;;;;;;56.67;31.30;;;;;;;;;;4880217;28;20751;-81
2020/12/03 12:35:16;;;;;;;44.93;23.77;;;;;;;;;;4861653;28;20223;-82
2020/12/03 12:37:38;;;;;;;45.87;26.93;;;1.10;1.00;;;;;;4878926;28;20669;-83
2020/12/03 12:40:03;;;;;;;72.77;33.83;;;1.10;1.00;;;;;;4863847;28;20240;-82
2020/12/03 12:42:27;;;;;;;59.80;32.63;;;1.10;1.00;;;;;;4852579;28;20234;-82
2020/12/03 12:44:50;;;;;;;90.80;44.07;;;;;;;;;;4844688;28;20689;-82
2020/12/03 12:47:12;;;;;;;125.37;54.13;;;;;;;;;;4878518;28;20688;-82
2020/12/03 12:49:34;;;;;;;46.53;27.03;;;1.20;1.00;;;;;;4860260;28;21032;-83
2020/12/03 12:51:57;;;;;;;75.97;37.07;;;1.50;1.00;;;;;;4879498;28;20189;-81
2020/12/03 12:54:21;;;;;;;88.10;42.90;;;;;;;;;;4878202;28;20178;-82
2020/12/03 12:56:47;;;;;;;77.87;39.40;;;1.20;1.00;;;;;;4843630;28;20632;-84
2020/12/03 12:59:09;;;;;;;78.20;38.43;;;;;;;;;;4876931;28;20752;-82
2020/12/03 13:01:31;;;;;;;130.77;56.97;;;1.10;1.00;;;;;;4864846;28;20217;-82
2020/12/03 13:03:53;;;;;;;118.63;55.50;;;1.20;1.00;;;;;;4879084;28;20186;-84
2020/12/03 13:06:16;;;;;;;62.47;33.83;;;;;;;;;;4859376;28;20597;-82
2020/12/03 13:08:38;;;;;;;87.20;44.27;;;;;;;;;;4858947;28;20186;-83
2020/12/03 13:11:00;;;;;;;43.97;25.87;;;1.20;1.00;;;;;;4860436;28;20193;-83
2020/12/03 13:13:29;;;;;;;56.83;32.60;;;1.20;1.00;;;;;;4860130;28;20186;-84
2020/12/03 13:15:51;;;;;;;61.70;32.77;;;;;;;;;;4842061;28;20198;-83
2020/12/03 13:18:13;;;;;;;105.30;47.33;;;1.30;1.00;;;;;;4859043;28;20206;-83
2020/12/03 13:20:37;;;;;;;155.27;66.87;;;1.50;1.00;;;;;;4859456;28;20226;-83